Airfield :
LOGIN :

Register | Disclaimer

   EN    FR    IT 

 










Legend :    VFR   Marginal VFR   IFR   Intensive IFR   Very Intensive IFR
Visi :
Ceiling :
>= 8 km
>= 3000ft
5 to 8 km
1000 to 3000 ft
1500m to 5 km
500 to 1000 ft
800 to 1500m
200 to 500 ft
< 800m
< 200 ft
Symbols :   Thunderstorms  Fog  Heavy snow  Heavy precipitations  Wind > 20 kt
SIGMETs :     Misc.  Thunderstorms  Icing  Turbulence  Mountain Waves  Volcanic Ashes







- Airport Elevation : 123 ft
- IATA code : BLQ


LIPE - Bologna Guglielmo Marconi

CURRENT METAR :
  • 230720Z 10010KT 3000 -RA BR BKN005 OVC012 15/14 Q1012

EXPIRED METARs :
  • 230650Z 08003KT 040V110 3000 -RA BR BKN005 BKN012 15/14 Q1013 RERA
  • 230620Z VRB01KT 2000 RA BR BKN004 BKN010 15/14 Q1014
  • 230550Z VRB02KT 2500 -RA BR BKN004 BKN010 15/14 Q1014
  • 230520Z VRB02KT 2500 BR BKN003 BKN007 15/14 Q1014
  • 230450Z 29004KT 270V340 2500 BR SCT005 BKN010 15/14 Q1014

TAF TAF LIPE
Valid from the 23 at 06:00 until the 24 at 06:00 UTC


230500Z 2306/2406 VRB05KT 8000 FEW010 BKN030
TEMPO 2309/2316 4000 SHRA
No reported NOTAMs for that airfield.



MET'MAP, your aeronautical weather chart ! - Copyright ORBIFLY December 2007 - Disclaimer

ORBIFLY MET'MAP TEAM :

Programming & Development : Alexandra Zaïnal
Concept & Development : Baudouin d'Aumeries
Co-Development & Prog : Marc-Olivier Méhu
Technical & hardware support : Manuel Goepfert

Contact : metmap@orbifly.com




SOURCES & CREDITS :

   NOAA